Time;durP1;ratioP1;P1;durP2;ratioP2;P2;SDS_P1;SDS_P2;PMS_P1;PMS_P2;Temp;Humidity;BMP_temperature;BMP_pressure;BME280_temperature;BME280_humidity;BME280_pressure;Samples;Min_cycle;Max_cycle;Signal;HPM_P1;HPM_P2
2024/02/17 00:02:19;;;;;;;21.35;6.60;;;;;;;11.13;100.00;102483.94;5282999;27;20054;-74
2024/02/17 00:04:50;;;;;;;22.13;6.57;;;;;;;11.11;100.00;102482.38;5288264;27;20534;-74
2024/02/17 00:07:21;;;;;;;25.05;7.07;;;;;;;11.10;100.00;102492.28;5282856;27;20030;-74
2024/02/17 00:09:51;;;;;;;21.75;6.80;;;;;;;11.11;100.00;102487.75;5269166;28;20073;-74
2024/02/17 00:12:22;;;;;;;24.42;6.95;;;;;;;11.07;100.00;102492.53;5285347;28;20015;-74
2024/02/17 00:14:52;;;;;;;21.77;5.75;;;;;;;11.07;100.00;102500.59;5284386;27;20035;-74
2024/02/17 00:17:23;;;;;;;19.70;6.72;;;;;;;11.09;100.00;102500.44;5283116;27;20024;-74
2024/02/17 00:19:53;;;;;;;28.45;6.47;;;;;;;11.03;100.00;102498.28;5281301;27;20026;-74
2024/02/17 00:22:24;;;;;;;16.20;6.05;;;;;;;11.03;100.00;102501.81;5281605;28;20023;-74
2024/02/17 00:24:54;;;;;;;20.55;5.88;;;;;;;11.07;100.00;102503.28;5283679;27;20038;-74
2024/02/17 00:27:25;;;;;;;18.77;6.68;;;;;;;11.08;100.00;102507.66;5282350;27;20114;-74
2024/02/17 00:29:55;;;;;;;22.25;6.43;;;;;;;11.10;100.00;102510.22;5283042;27;20008;-74
2024/02/17 00:32:26;;;;;;;17.95;6.07;;;;;;;11.08;100.00;102507.66;5285592;28;20106;-74
2024/02/17 00:34:56;;;;;;;14.77;6.13;;;;;;;11.07;100.00;102521.22;5286892;27;20023;-74
2024/02/17 00:37:27;;;;;;;25.90;6.40;;;;;;;11.05;100.00;102515.13;5287487;27;20566;-74
2024/02/17 00:39:58;;;;;;;18.15;5.78;;;;;;;11.09;100.00;102517.44;5280023;28;20418;-74
2024/02/17 00:42:28;;;;;;;25.15;7.20;;;;;;;11.05;100.00;102510.63;5286629;27;20034;-74
2024/02/17 00:44:59;;;;;;;19.17;6.38;;;;;;;11.18;100.00;102518.47;5286924;27;20027;-74
2024/02/17 00:47:29;;;;;;;17.10;6.00;;;;;;;11.11;100.00;102523.53;5281814;28;20027;-74
2024/02/17 00:49:59;;;;;;;19.55;6.40;;;;;;;11.10;100.00;102521.81;5285863;27;20016;-74
2024/02/17 00:52:30;;;;;;;20.05;6.93;;;;;;;11.08;100.00;102520.22;5283173;27;20024;-74
2024/02/17 00:55:00;;;;;;;18.05;5.43;;;;;;;11.06;100.00;102525.75;5283373;28;20106;-74
2024/02/17 00:57:31;;;;;;;19.27;6.13;;;;;;;11.05;100.00;102529.41;5280696;27;20027;-74
2024/02/17 01:00:03;;;;;;;17.05;6.40;;;;;;;11.03;100.00;102530.50;5284629;27;20090;-74
2024/02/17 01:02:35;;;;;;;27.08;6.53;;;;;;;11.06;100.00;102524.91;5279938;27;20521;-74
2024/02/17 01:05:05;;;;;;;25.80;6.53;;;;;;;11.04;100.00;102535.75;5274762;28;20023;-74
2024/02/17 01:07:36;;;;;;;25.67;6.80;;;;;;;11.01;100.00;102530.66;5279999;28;20112;-74
2024/02/17 01:10:07;;;;;;;20.73;6.85;;;;;;;11.00;100.00;102528.94;5279185;27;20055;-74
2024/02/17 01:12:37;;;;;;;26.67;7.22;;;;;;;11.02;100.00;102532.34;5283971;28;20066;-74
2024/02/17 01:15:09;;;;;;;20.45;6.90;;;;;;;11.01;100.00;102530.66;5279578;28;20162;-74
2024/02/17 01:17:40;;;;;;;17.38;6.30;;;;;;;10.99;100.00;102535.28;5281909;28;20035;-74
2024/02/17 01:20:11;;;;;;;21.08;6.78;;;;;;;10.95;100.00;102539.22;5283922;28;20072;-74
2024/02/17 01:22:41;;;;;;;18.50;6.20;;;;;;;10.98;100.00;102538.94;5283849;27;20027;-74
2024/02/17 01:25:12;;;;;;;17.40;6.05;;;;;;;11.02;100.00;102540.41;5280117;28;20020;-74
2024/02/17 01:27:43;;;;;;;20.35;6.47;;;;;;;11.02;100.00;102550.28;5278941;28;20050;-74
2024/02/17 01:30:13;;;;;;;21.15;6.75;;;;;;;11.03;100.00;102552.00;5282375;28;20103;-74
2024/02/17 01:32:44;;;;;;;19.55;6.25;;;;;;;11.04;100.00;102545.63;5279984;27;20039;-74
2024/02/17 01:35:14;;;;;;;19.98;6.18;;;;;;;11.06;100.00;102547.22;5278544;28;20024;-74
2024/02/17 01:37:48;;;;;;;21.60;6.82;;;;;;;11.06;100.00;102560.66;5281429;28;20015;-74
2024/02/17 01:40:19;;;;;;;18.73;6.45;;;;;;;11.12;100.00;102553.91;5281460;28;20076;-74
2024/02/17 01:42:49;;;;;;;20.65;6.05;;;;;;;11.15;100.00;102559.91;5282184;28;20027;-74
2024/02/17 01:45:20;;;;;;;20.67;6.20;;;;;;;11.17;100.00;102559.75;5283165;28;20081;-74
2024/02/17 01:47:52;;;;;;;22.73;6.07;;;;;;;11.15;100.00;102567.09;5281225;27;20042;-74
2024/02/17 01:50:22;;;;;;;22.52;5.00;;;;;;;11.18;100.00;102568.66;5284312;27;20023;-74
2024/02/17 01:52:54;;;;;;;19.38;6.50;;;;;;;11.17;100.00;102575.03;5280224;28;20026;-74
2024/02/17 01:55:26;;;;;;;22.92;6.35;;;;;;;11.11;100.00;102581.75;5276510;27;20027;-74
2024/02/17 01:57:57;;;;;;;21.20;6.50;;;;;;;11.13;100.00;102590.53;5275488;27;20032;-74
2024/02/17 02:00:28;;;;;;;21.95;6.53;;;;;;;11.15;100.00;102584.06;5276196;27;20488;-74
2024/02/17 02:02:59;;;;;;;18.08;6.05;;;;;;;11.05;100.00;102587.66;5282994;27;20019;-74
2024/02/17 02:05:30;;;;;;;20.08;5.90;;;;;;;11.05;100.00;102588.50;5282793;28;20020;-74
2024/02/17 02:08:00;;;;;;;16.73;5.80;;;;;;;11.08;100.00;102600.81;5284597;27;20498;-74
2024/02/17 02:10:31;;;;;;;18.20;5.15;;;;;;;11.07;100.00;102591.91;5278837;27;20058;-74
2024/02/17 02:13:01;;;;;;;19.67;5.63;;;;;;;11.11;100.00;102603.25;5275949;27;20024;-74
2024/02/17 02:15:33;;;;;;;14.50;5.53;;;;;;;11.07;100.00;102599.97;5278229;27;20077;-75
2024/02/17 02:18:04;;;;;;;30.60;6.88;;;;;;;11.13;100.00;102604.81;5279251;28;20020;-74
2024/02/17 02:20:35;;;;;;;16.58;5.88;;;;;;;11.13;100.00;102612.88;5279418;28;20392;-74
2024/02/17 02:23:06;;;;;;;30.15;6.00;;;;;;;11.11;100.00;102620.22;5278639;28;20068;-74
2024/02/17 02:25:37;;;;;;;19.50;5.78;;;;;;;11.13;100.00;102617.41;5287062;27;20426;-74
2024/02/17 02:28:07;;;;;;;17.67;5.50;;;;;;;11.10;100.00;102618.53;5280492;28;20012;-74
2024/02/17 02:30:40;;;;;;;23.92;6.15;;;;;;;11.05;100.00;102620.72;5284939;28;20393;-74
2024/02/17 02:33:10;;;;;;;25.27;6.03;;;;;;;11.08;100.00;102617.78;5277711;28;20027;-74
2024/02/17 02:35:40;;;;;;;25.67;6.18;;;;;;;11.03;100.00;102619.13;5284634;28;20024;-74
2024/02/17 02:38:11;;;;;;;17.80;5.85;;;;;;;11.00;100.00;102622.09;5284478;28;20583;-74
2024/02/17 02:40:41;;;;;;;28.42;6.50;;;;;;;11.00;100.00;102631.00;5282011;28;20133;-74
2024/02/17 02:43:12;;;;;;;23.30;5.85;;;;;;;10.97;100.00;102633.06;5283415;28;20020;-74
2024/02/17 02:45:42;;;;;;;19.73;6.20;;;;;;;10.93;100.00;102634.28;5284044;27;20038;-74
2024/02/17 02:48:14;;;;;;;19.77;5.45;;;;;;;10.96;100.00;102634.06;5282796;27;20030;-74
2024/02/17 02:50:44;;;;;;;24.83;6.97;;;;;;;10.95;100.00;102638.56;5284116;28;20031;-74
2024/02/17 02:53:15;;;;;;;18.90;6.18;;;;;;;10.95;100.00;102643.94;5279387;28;20019;-74
2024/02/17 02:55:45;;;;;;;24.35;6.22;;;;;;;10.92;100.00;102646.88;5278985;28;20413;-74
2024/02/17 02:58:16;;;;;;;24.02;6.55;;;;;;;10.90;100.00;102643.47;5278038;28;20047;-74
2024/02/17 03:00:47;;;;;;;17.90;5.97;;;;;;;10.96;100.00;102647.50;5280767;27;20546;-74
2024/02/17 03:03:17;;;;;;;29.50;6.55;;;;;;;10.94;100.00;102649.41;5285784;27;20404;-74
2024/02/17 03:05:48;;;;;;;18.52;5.97;;;;;;;10.92;100.00;102659.44;5288210;27;20028;-74
2024/02/17 03:08:21;;;;;;;25.70;6.32;;;;;;;10.86;100.00;102655.44;5286110;28;20023;-74
2024/02/17 03:10:51;;;;;;;26.95;6.25;;;;;;;10.85;100.00;102661.78;5288243;27;20435;-74
2024/02/17 03:13:29;;;;;;;21.58;6.65;;;;;;;10.86;100.00;102667.03;5286760;27;20077;-74
2024/02/17 03:16:00;;;;;;;22.15;5.95;;;;;;;10.88;100.00;102667.75;5285719;27;20428;-74
2024/02/17 03:18:31;;;;;;;18.95;6.40;;;;;;;10.80;100.00;102674.72;5283395;27;20072;-74
2024/02/17 03:21:01;;;;;;;24.90;6.72;;;;;;;10.77;100.00;102672.28;5289174;27;20046;-74
2024/02/17 03:23:34;;;;;;;19.85;6.63;;;;;;;10.74;100.00;102677.88;5283830;27;20026;-74
2024/02/17 03:26:06;;;;;;;25.98;6.57;;;;;;;10.68;100.00;102667.63;5285305;27;20038;-74
2024/02/17 03:28:36;;;;;;;23.30;6.60;;;;;;;10.70;100.00;102668.38;5282390;28;20023;-73
2024/02/17 03:31:07;;;;;;;28.63;5.75;;;;;;;10.68;100.00;102673.00;5286506;27;20024;-74
2024/02/17 03:33:38;;;;;;;21.20;5.65;;;;;;;10.70;100.00;102674.63;5286776;27;20020;-74
2024/02/17 03:36:10;;;;;;;25.00;6.88;;;;;;;10.72;100.00;102682.53;5283269;27;20103;-74
2024/02/17 03:38:40;;;;;;;21.33;6.25;;;;;;;10.70;100.00;102679.13;5287992;27;20023;-75
2024/02/17 03:41:11;;;;;;;19.30;6.07;;;;;;;10.71;100.00;102686.19;5282127;27;20031;-75
2024/02/17 03:43:42;;;;;;;18.88;6.80;;;;;;;10.68;100.00;102687.28;5287670;27;20133;-74
2024/02/17 03:46:12;;;;;;;20.95;6.40;;;;;;;10.69;100.00;102688.13;5287629;28;20053;-75
2024/02/17 03:48:42;;;;;;;19.17;5.55;;;;;;;10.72;100.00;102695.94;5280281;27;20495;-74
2024/02/17 03:51:13;;;;;;;18.58;6.65;;;;;;;10.66;100.00;102699.13;5281480;27;20024;-75
2024/02/17 03:53:46;;;;;;;21.80;6.82;;;;;;;10.66;100.00;102701.81;5286062;27;20031;-75
2024/02/17 03:56:17;;;;;;;18.90;5.95;;;;;;;10.64;100.00;102693.88;5284943;27;20034;-75
2024/02/17 03:58:47;;;;;;;26.77;6.65;;;;;;;10.68;100.00;102699.84;5284854;27;20028;-75
2024/02/17 04:01:18;;;;;;;24.80;5.97;;;;;;;10.71;100.00;102705.00;5283479;27;20417;-75
2024/02/17 04:03:48;;;;;;;18.40;5.60;;;;;;;10.70;100.00;102714.03;5280984;27;20035;-75
2024/02/17 04:06:21;;;;;;;25.30;5.32;;;;;;;10.67;100.00;102714.25;5285009;27;20019;-74
2024/02/17 04:08:51;;;;;;;13.45;5.63;;;;;;;10.65;100.00;102709.00;5281625;27;20553;-75
2024/02/17 04:11:22;;;;;;;17.73;5.55;;;;;;;10.63;100.00;102714.47;5278147;27;20110;-75
2024/02/17 04:13:53;;;;;;;18.83;5.15;;;;;;;10.61;100.00;102727.19;5279772;27;20027;-75
2024/02/17 04:16:23;;;;;;;17.73;5.50;;;;;;;10.61;100.00;102719.13;5284849;27;20043;-75
2024/02/17 04:18:54;;;;;;;22.05;5.68;;;;;;;10.62;100.00;102725.34;5286841;27;20053;-75
2024/02/17 04:21:24;;;;;;;22.77;5.32;;;;;;;10.59;100.00;102733.63;5284232;27;20027;-75
2024/02/17 04:23:55;;;;;;;20.38;5.65;;;;;;;10.63;100.00;102737.78;5282253;28;20023;-75
2024/02/17 04:26:25;;;;;;;24.27;6.13;;;;;;;10.58;100.00;102735.47;5282011;27;20027;-75
2024/02/17 04:28:56;;;;;;;17.90;4.97;;;;;;;10.59;100.00;102750.63;5281792;28;20023;-75
2024/02/17 04:31:26;;;;;;;21.70;4.72;;;;;;;10.59;100.00;102747.06;5286778;28;20035;-75
2024/02/17 04:33:57;;;;;;;18.52;6.10;;;;;;;10.61;100.00;102753.16;5285125;28;20012;-75
2024/02/17 04:36:27;;;;;;;19.45;5.18;;;;;;;10.55;100.00;102748.28;5278849;28;20373;-75
2024/02/17 04:38:59;;;;;;;23.50;5.20;;;;;;;10.55;100.00;102759.88;5265422;28;20370;-75
2024/02/17 04:41:29;;;;;;;15.23;4.55;;;;;;;10.54;100.00;102760.88;5278304;28;20055;-75
2024/02/17 04:44:00;;;;;;;15.52;4.80;;;;;;;10.53;100.00;102767.19;5284517;28;20152;-76
2024/02/17 04:46:30;;;;;;;19.17;5.45;;;;;;;10.57;100.00;102773.16;5285749;28;20028;-75
2024/02/17 04:49:01;;;;;;;17.20;4.25;;;;;;;10.58;100.00;102778.41;5276866;28;20028;-75
2024/02/17 04:51:31;;;;;;;17.92;4.00;;;;;;;10.53;100.00;102777.91;5281692;27;20053;-75
2024/02/17 04:54:02;;;;;;;20.33;4.75;;;;;;;10.53;100.00;102788.66;5285327;28;20494;-75
2024/02/17 04:56:33;;;;;;;16.70;4.28;;;;;;;10.56;100.00;102785.72;5286391;27;20024;-75
2024/02/17 04:59:03;;;;;;;16.63;4.90;;;;;;;10.54;100.00;102790.38;5280491;28;20015;-76
2024/02/17 05:01:34;;;;;;;21.42;4.22;;;;;;;10.52;100.00;102796.81;5284135;27;20385;-76
2024/02/17 05:04:05;;;;;;;20.90;4.30;;;;;;;10.51;100.00;102795.97;5280407;28;20019;-75
2024/02/17 05:06:36;;;;;;;16.67;4.53;;;;;;;10.51;100.00;102797.81;5288337;27;20107;-75
2024/02/17 05:09:07;;;;;;;19.95;5.65;;;;;;;10.52;100.00;102804.88;5287583;27;20016;-75
2024/02/17 05:11:40;;;;;;;21.17;4.82;;;;;;;10.49;100.00;102805.97;5282404;28;20122;-76
2024/02/17 05:14:15;;;;;;;23.88;5.13;;;;;;;10.50;100.00;102813.06;5281913;27;20023;-75
2024/02/17 05:16:46;;;;;;;25.10;4.68;;;;;;;10.46;100.00;102811.56;5285632;27;20598;-76
2024/02/17 05:19:17;;;;;;;17.52;4.18;;;;;;;10.48;100.00;102812.31;5287209;27;20012;-75
2024/02/17 05:21:47;;;;;;;23.10;5.10;;;;;;;10.45;100.00;102812.56;5284478;27;20107;-75
2024/02/17 05:24:17;;;;;;;20.38;5.10;;;;;;;10.45;100.00;102814.38;5274364;27;20100;-75
2024/02/17 05:26:48;;;;;;;26.05;4.78;;;;;;;10.42;100.00;102815.47;5282888;27;20115;-75
2024/02/17 05:29:18;;;;;;;12.93;3.95;;;;;;;10.42;100.00;102817.28;5287691;27;20032;-75
2024/02/17 05:31:49;;;;;;;14.43;4.60;;;;;;;10.42;100.00;102818.13;5284211;27;20019;-75
2024/02/17 05:34:21;;;;;;;18.05;5.30;;;;;;;10.34;100.00;102824.09;5281770;27;20037;-76
2024/02/17 05:36:51;;;;;;;18.90;4.65;;;;;;;10.33;100.00;102824.19;5280960;28;20027;-76
2024/02/17 05:39:22;;;;;;;17.10;4.25;;;;;;;10.36;100.00;102821.31;5282532;27;20016;-75
2024/02/17 05:41:53;;;;;;;19.58;4.38;;;;;;;10.49;100.00;102830.13;5284468;28;20107;-76
2024/02/17 05:44:24;;;;;;;17.92;4.40;;;;;;;10.36;100.00;102826.66;5278304;28;20426;-75
2024/02/17 05:46:54;;;;;;;17.20;4.05;;;;;;;10.35;100.00;102830.31;5284475;28;20032;-75
2024/02/17 05:49:24;;;;;;;18.83;5.10;;;;;;;10.34;100.00;102842.00;5279539;28;20438;-75
2024/02/17 05:51:56;;;;;;;18.23;5.05;;;;;;;10.33;100.00;102841.16;5282724;28;20106;-76
2024/02/17 05:54:26;;;;;;;16.20;4.38;;;;;;;10.31;100.00;102844.94;5280884;28;20102;-75
2024/02/17 05:56:57;;;;;;;14.90;4.20;;;;;;;10.24;100.00;102849.03;5281350;28;20110;-75
2024/02/17 05:59:27;;;;;;;15.15;4.80;;;;;;;10.27;100.00;102851.50;5284235;27;20438;-75
2024/02/17 06:01:58;;;;;;;16.60;4.65;;;;;;;10.21;100.00;102851.94;5278269;27;20361;-75
2024/02/17 06:04:29;;;;;;;22.98;4.93;;;;;;;10.22;100.00;102857.19;5288358;27;20044;-75
2024/02/17 06:07:00;;;;;;;20.92;4.88;;;;;;;10.26;100.00;102865.91;5281348;27;20050;-75
2024/02/17 06:09:30;;;;;;;21.27;4.43;;;;;;;10.24;100.00;102867.81;5284366;27;20102;-75
2024/02/17 06:12:01;;;;;;;17.20;4.68;;;;;;;10.20;100.00;102866.31;5286006;27;20019;-75
2024/02/17 06:14:31;;;;;;;17.52;4.93;;;;;;;10.25;100.00;102872.22;5281069;28;20452;-75
2024/02/17 06:17:06;;;;;;;21.50;5.35;;;;;;;10.23;100.00;102869.59;5282827;27;20020;-75
2024/02/17 06:22:26;;;;;;;19.17;4.35;;;;;;;10.37;100.00;102871.31;5280101;28;19947;-75
2024/02/17 06:24:56;;;;;;;19.95;4.13;;;;;;;10.35;100.00;102871.44;5287046;28;20591;-75
2024/02/17 06:27:26;;;;;;;25.60;4.55;;;;;;;10.34;100.00;102871.50;5284854;28;20368;-75
2024/02/17 06:29:57;;;;;;;19.67;5.00;;;;;;;10.37;100.00;102877.50;5285872;28;20485;-75
2024/02/17 06:32:28;;;;;;;20.52;4.60;;;;;;;10.41;100.00;102880.84;5289262;28;20027;-76
2024/02/17 06:34:59;;;;;;;14.55;4.45;;;;;;;10.41;100.00;102883.53;5288993;27;20443;-75
2024/02/17 06:37:29;;;;;;;25.42;5.10;;;;;;;10.26;100.00;102884.66;5289614;27;20019;-75
2024/02/17 06:40:00;;;;;;;26.25;6.38;;;;;;;10.18;100.00;102885.19;5290006;27;20023;-75
2024/02/17 06:42:30;;;;;;;19.83;5.65;;;;;;;10.16;100.00;102887.16;5289359;27;20030;-75
2024/02/17 06:45:01;;;;;;;17.95;4.55;;;;;;;10.15;100.00;102896.16;5291507;27;20019;-75
2024/02/17 06:47:31;;;;;;;13.52;4.50;;;;;;;10.14;100.00;102886.41;5285976;27;20241;-75
2024/02/17 06:50:02;;;;;;;12.75;5.05;;;;;;;10.10;100.00;102895.66;5292120;27;20021;-75
2024/02/17 06:52:32;;;;;;;27.35;5.05;;;;;;;10.14;100.00;102899.81;5289600;27;20024;-75
2024/02/17 06:55:04;;;;;;;18.85;4.53;;;;;;;10.18;100.00;102905.78;5284586;27;20042;-75
2024/02/17 06:57:37;;;;;;;22.83;4.43;;;;;;;10.18;100.00;102913.84;5281327;27;20038;-75
2024/02/17 07:00:08;;;;;;;19.17;3.97;;;;;;;10.17;100.00;102915.66;5286624;27;20376;-75
2024/02/17 07:02:38;;;;;;;20.30;4.10;;;;;;;10.20;100.00;102923.50;5288264;27;20027;-75
2024/02/17 07:05:08;;;;;;;24.95;4.32;;;;;;;10.30;100.00;102923.72;5288260;27;20539;-75
2024/02/17 07:07:39;;;;;;;19.55;4.57;;;;;;;10.21;100.00;102941.31;5287814;27;20362;-75
2024/02/17 07:10:10;;;;;;;24.05;4.32;;;;;;;10.21;100.00;102940.47;5287156;27;20099;-75
2024/02/17 07:12:40;;;;;;;22.08;4.97;;;;;;;10.24;100.00;102950.97;5285100;27;20505;-75
2024/02/17 07:15:11;;;;;;;18.65;4.00;;;;;;;10.25;100.00;102958.06;5282800;28;20031;-75
2024/02/17 07:17:42;;;;;;;18.75;4.50;;;;;;;10.27;100.00;102962.34;5284677;28;20024;-75
2024/02/17 07:20:13;;;;;;;14.45;4.18;;;;;;;10.27;100.00;102964.16;5281065;28;20016;-75
2024/02/17 07:22:45;;;;;;;21.27;5.03;;;;;;;10.25;100.00;102968.81;5280168;28;20114;-76
2024/02/17 07:25:16;;;;;;;24.55;5.25;;;;;;;10.27;100.00;102974.91;5280318;27;20527;-75
2024/02/17 07:27:48;;;;;;;17.90;4.63;;;;;;;10.27;100.00;102977.59;5285606;28;20016;-75
2024/02/17 07:30:18;;;;;;;12.98;4.70;;;;;;;10.25;100.00;102976.84;5281831;28;20019;-75
2024/02/17 07:32:49;;;;;;;16.95;4.68;;;;;;;10.34;100.00;102984.19;5278139;27;20020;-76
2024/02/17 07:35:21;;;;;;;18.35;5.00;;;;;;;10.34;100.00;102987.78;5278189;28;20027;-75
2024/02/17 07:37:52;;;;;;;21.33;5.00;;;;;;;10.51;100.00;102988.34;5281127;27;20107;-75
2024/02/17 07:40:23;;;;;;;21.10;4.60;;;;;;;10.49;100.00;102990.25;5280962;28;20020;-75
2024/02/17 07:42:53;;;;;;;15.98;4.88;;;;;;;10.42;100.00;102997.06;5280420;27;20072;-75
2024/02/17 07:45:24;;;;;;;20.75;4.93;;;;;;;10.53;100.00;103003.34;5283098;27;20031;-75
2024/02/17 07:47:54;;;;;;;19.55;4.78;;;;;;;10.51;100.00;103001.75;5281380;27;20061;-76
2024/02/17 07:50:26;;;;;;;20.50;4.63;;;;;;;10.44;100.00;103005.84;5288293;27;20023;-75
2024/02/17 07:52:57;;;;;;;30.17;5.22;;;;;;;10.58;100.00;103019.97;5287572;27;20076;-76
2024/02/17 07:55:28;;;;;;;28.98;5.50;;;;;;;10.69;100.00;103007.56;5285117;27;20111;-75
2024/02/17 07:57:58;;;;;;;20.95;5.70;;;;;;;10.50;100.00;103014.31;5287420;27;20455;-75
2024/02/17 08:00:29;;;;;;;22.52;5.88;;;;;;;10.66;100.00;103018.56;5283459;27;20097;-75
2024/02/17 08:02:59;;;;;;;17.20;5.15;;;;;;;10.62;100.00;103026.81;5287107;27;20481;-74
2024/02/17 08:05:30;;;;;;;24.27;5.47;;;;;;;10.59;100.00;103028.88;5282867;27;20027;-74
2024/02/17 08:08:00;;;;;;;18.83;4.70;;;;;;;10.62;100.00;103034.88;5290022;27;20023;-74
2024/02/17 08:10:31;;;;;;;17.40;5.50;;;;;;;10.63;100.00;103041.97;5282638;28;20024;-74
2024/02/17 08:13:01;;;;;;;23.35;5.15;;;;;;;10.67;100.00;103045.28;5281609;27;20026;-74
2024/02/17 08:15:32;;;;;;;20.42;5.88;;;;;;;10.66;100.00;103045.41;5277923;27;20658;-74
2024/02/17 08:18:03;;;;;;;20.27;4.55;;;;;;;10.69;100.00;103055.91;5278500;27;20569;-74
2024/02/17 08:20:33;;;;;;;19.92;5.25;;;;;;;10.72;100.00;103053.00;5275262;27;20424;-74
2024/02/17 08:23:04;;;;;;;17.17;4.95;;;;;;;10.75;100.00;103059.00;5282672;27;20114;-74
2024/02/17 08:25:34;;;;;;;17.92;4.45;;;;;;;10.74;100.00;103057.25;5264321;28;20032;-74
2024/02/17 08:28:05;;;;;;;29.73;4.88;;;;;;;10.77;100.00;103058.88;5279169;27;20114;-74
2024/02/17 08:30:36;;;;;;;19.52;4.57;;;;;;;10.77;100.00;103057.06;5286266;27;20011;-74
2024/02/17 08:33:07;;;;;;;20.23;5.30;;;;;;;10.81;100.00;103068.44;5285568;27;20023;-74
2024/02/17 08:35:37;;;;;;;25.52;5.32;;;;;;;10.85;100.00;103068.09;5284206;27;20187;-74
2024/02/17 08:38:08;;;;;;;13.32;5.03;;;;;;;10.91;100.00;103068.59;5283888;27;20571;-74
2024/02/17 08:40:38;;;;;;;18.67;5.07;;;;;;;10.96;100.00;103072.66;5280546;27;20358;-74
2024/02/17 08:43:09;;;;;;;33.42;5.65;;;;;;;11.03;100.00;103075.72;5280665;28;20408;-74
2024/02/17 08:45:40;;;;;;;20.75;4.93;;;;;;;11.18;100.00;103087.16;5283209;27;20118;-74
2024/02/17 08:48:12;;;;;;;29.98;5.90;;;;;;;11.17;100.00;103094.34;5284242;27;20026;-74
2024/02/17 08:50:43;;;;;;;15.43;4.60;;;;;;;11.15;100.00;103085.56;5282777;28;20493;-74
2024/02/17 08:53:13;;;;;;;16.92;4.78;;;;;;;11.20;100.00;103091.47;5271760;27;20030;-74
2024/02/17 08:55:44;;;;;;;17.15;5.03;;;;;;;11.27;100.00;103089.16;5280428;27;20127;-74
2024/02/17 08:58:15;;;;;;;17.90;5.50;;;;;;;11.14;100.00;103095.47;5283340;28;20023;-74
2024/02/17 09:00:46;;;;;;;20.05;4.97;;;;;;;11.20;100.00;103095.97;5285444;27;20035;-74
2024/02/17 09:03:16;;;;;;;20.58;5.40;;;;;;;11.27;100.00;103099.91;5282749;28;20023;-74
2024/02/17 09:05:47;;;;;;;18.88;4.53;;;;;;;11.28;100.00;103106.97;5280229;28;20042;-74
2024/02/17 09:08:18;;;;;;;19.73;5.10;;;;;;;11.31;100.00;103106.75;5283124;28;20035;-74
2024/02/17 09:10:48;;;;;;;24.95;6.30;;;;;;;11.37;100.00;103114.34;5285077;28;20106;-74
2024/02/17 09:13:19;;;;;;;21.58;5.60;;;;;;;11.42;100.00;103114.84;5279938;28;20036;-74
2024/02/17 09:15:49;;;;;;;21.83;5.45;;;;;;;11.48;100.00;103119.75;5281977;28;20099;-74
2024/02/17 09:18:22;;;;;;;24.83;5.00;;;;;;;11.54;100.00;103115.75;5279991;27;20027;-74
2024/02/17 09:20:52;;;;;;;21.27;4.63;;;;;;;11.59;100.00;103122.47;5281187;28;20480;-74
2024/02/17 09:23:23;;;;;;;20.45;6.20;;;;;;;11.64;100.00;103133.72;5279664;28;20030;-74
2024/02/17 09:25:53;;;;;;;24.77;5.85;;;;;;;11.66;100.00;103128.25;5283442;27;20033;-74
2024/02/17 09:28:24;;;;;;;18.20;6.13;;;;;;;11.73;100.00;103125.94;5284217;28;20061;-74
2024/02/17 09:30:54;;;;;;;22.55;6.75;;;;;;;11.80;100.00;103127.22;5279810;28;20036;-74
2024/02/17 09:33:28;;;;;;;21.60;6.18;;;;;;;11.85;100.00;103128.59;5282347;28;20115;-74
2024/02/17 09:35:59;;;;;;;23.13;5.93;;;;;;;11.96;100.00;103135.81;5262611;28;20027;-74
2024/02/17 09:38:29;;;;;;;16.55;5.68;;;;;;;11.90;100.00;103130.94;5282032;28;20036;-74
2024/02/17 09:41:00;;;;;;;17.70;5.72;;;;;;;12.00;100.00;103134.63;5275823;28;20681;-74
2024/02/17 09:43:31;;;;;;;25.58;6.22;;;;;;;11.99;100.00;103135.56;5277352;28;20039;-74
2024/02/17 09:46:02;;;;;;;23.60;5.97;;;;;;;12.07;100.00;103146.59;5276281;28;20023;-74
2024/02/17 09:48:32;;;;;;;25.60;6.30;;;;;;;12.01;100.00;103141.69;5284833;27;20591;-74
2024/02/17 09:51:06;;;;;;;23.90;6.72;;;;;;;12.12;100.00;103133.63;5282440;27;20028;-74
2024/02/17 09:53:38;;;;;;;25.45;6.38;;;;;;;12.24;100.00;103130.94;5280671;28;20015;-74
2024/02/17 09:56:09;;;;;;;24.98;6.20;;;;;;;12.25;100.00;103136.22;5280523;28;20024;-74
2024/02/17 09:58:40;;;;;;;20.73;5.65;;;;;;;12.23;100.00;103135.47;5276989;28;20027;-75
2024/02/17 10:01:13;;;;;;;21.73;6.28;;;;;;;12.34;100.00;103127.41;5282095;28;20485;-75
2024/02/17 10:03:44;;;;;;;17.33;5.88;;;;;;;12.50;100.00;103128.84;5272172;28;20118;-74
2024/02/17 10:06:16;;;;;;;21.00;5.45;;;;;;;12.53;100.00;103134.84;5278369;28;20107;-74
2024/02/17 10:08:49;;;;;;;16.85;5.72;;;;;;;12.63;100.00;103127.75;5279811;28;20459;-75
2024/02/17 10:11:20;;;;;;;18.70;6.75;;;;;;;12.73;100.00;103124.31;5277924;28;20061;-74
2024/02/17 10:14:01;;;;;;;24.92;6.88;;;;;;;12.64;100.00;103126.75;5275900;28;20023;-75
2024/02/17 10:16:32;;;;;;;28.27;6.22;;;;;;;12.66;100.00;103119.44;5279712;28;20028;-75
2024/02/17 10:19:04;;;;;;;18.98;5.70;;;;;;;12.87;100.00;103132.97;5283898;28;20089;-74
2024/02/17 10:24:26;;;;;;;19.90;5.57;;;;;;;13.46;100.00;103134.41;5264583;28;20031;-75
2024/02/17 10:26:57;;;;;;;25.05;5.57;;;;;;;13.58;100.00;103135.22;5276020;28;20034;-75
2024/02/17 10:29:27;;;;;;;19.35;5.45;;;;;;;13.52;100.00;103131.19;5273293;28;20024;-75
2024/02/17 10:31:59;;;;;;;19.42;5.30;;;;;;;13.59;100.00;103132.38;5270004;28;20152;-74
2024/02/17 10:34:30;;;;;;;27.95;7.05;;;;;;;13.53;100.00;103143.69;5272739;28;20412;-75
2024/02/17 10:37:02;;;;;;;21.02;5.20;;;;;;;13.71;100.00;103152.94;5272698;28;20032;-75
2024/02/17 10:39:33;;;;;;;22.30;5.15;;;;;;;13.55;100.00;103160.59;5262807;28;20027;-75
2024/02/17 10:42:04;;;;;;;20.17;6.07;;;;;;;13.69;100.00;103162.97;5256823;28;20027;-75
2024/02/17 10:44:35;;;;;;;21.85;5.28;;;;;;;13.58;100.00;103163.03;5235711;28;20485;-75
2024/02/17 10:47:05;;;;;;;22.60;6.47;;;;;;;13.51;100.00;103167.25;5270768;28;20111;-75
2024/02/17 10:49:43;;;;;;;21.25;6.00;;;;;;;13.81;100.00;103162.94;5258964;28;20649;-74
2024/02/17 10:52:20;;;;;;;21.50;5.43;;;;;;;13.64;100.00;103167.03;5260657;28;20457;-75
2024/02/17 10:54:58;;;;;;;22.73;6.07;;;;;;;13.91;100.00;103169.25;5277177;28;20019;-75
2024/02/17 10:57:38;;;;;;;26.25;6.60;;;;;;;14.09;100.00;103173.03;5280548;28;20414;-75
2024/02/17 11:00:11;;;;;;;24.38;5.75;;;;;;;13.88;100.00;103181.16;5268782;28;20019;-75
2024/02/17 11:02:43;;;;;;;25.80;6.07;;;;;;;14.03;100.00;103183.53;5278849;28;20550;-75
2024/02/17 11:05:15;;;;;;;24.25;5.72;;;;;;;14.06;100.00;103183.28;5279006;28;20121;-74
2024/02/17 11:07:47;;;;;;;34.45;5.88;;;;;;;14.12;100.00;103185.44;5278990;28;20111;-75
2024/02/17 11:10:17;;;;;;;23.17;5.53;;;;;;;14.08;100.00;103192.06;5266484;28;20085;-75
2024/02/17 11:12:49;;;;;;;22.55;4.95;;;;;;;14.36;100.00;103185.16;5270805;28;20020;-75
2024/02/17 11:15:20;;;;;;;16.98;4.50;;;;;;;14.56;100.00;103195.09;5276100;28;20468;-75
2024/02/17 11:17:58;;;;;;;16.35;5.18;;;;;;;14.72;100.00;103195.44;5279538;28;20022;-75
2024/02/17 11:20:28;;;;;;;19.17;4.90;;;;;;;14.45;100.00;103197.81;5280848;28;20024;-75
2024/02/17 11:23:01;;;;;;;22.75;4.38;;;;;;;14.68;100.00;103191.28;5279230;28;20038;-75
2024/02/17 11:25:34;;;;;;;26.75;4.95;;;;;;;14.98;100.00;103197.63;5287531;28;20080;-75
2024/02/17 11:28:20;;;;;;;16.40;5.25;;;;;;;15.34;100.00;103196.13;5280033;27;20182;-75
2024/02/17 11:30:53;;;;;;;15.20;4.88;;;;;;;15.45;100.00;103197.84;5273976;27;20028;-75
2024/02/17 11:33:29;;;;;;;20.25;5.43;;;;;;;15.57;100.00;103198.59;5266769;28;20102;-75